sensor_id;sensor_type;location;lat;lon;timestamp;pressure;altitude;pressure_sealevel;temperature;humidity
62600;BME280;48671;48.922;2.346;2023-05-22T00:01:20;101443.06;;;17.71;56.00
62600;BME280;48671;48.922;2.346;2023-05-22T00:03:47;101428.28;;;17.68;55.96
62600;BME280;48671;48.922;2.346;2023-05-22T00:06:29;101430.75;;;17.71;56.05
62600;BME280;48671;48.922;2.346;2023-05-22T00:09:04;101426.16;;;17.59;55.72
62600;BME280;48671;48.922;2.346;2023-05-22T00:11:32;101424.09;;;17.50;55.92
62600;BME280;48671;48.922;2.346;2023-05-22T00:14:00;101421.19;;;17.54;56.21
62600;BME280;48671;48.922;2.346;2023-05-22T00:16:25;101432.66;;;17.53;55.76
62600;BME280;48671;48.922;2.346;2023-05-22T00:18:51;101426.28;;;17.42;56.27
62600;BME280;48671;48.922;2.346;2023-05-22T00:21:16;101441.38;;;17.54;55.91
62600;BME280;48671;48.922;2.346;2023-05-22T00:23:42;101432.72;;;17.52;55.78
62600;BME280;48671;48.922;2.346;2023-05-22T00:26:08;101412.47;;;17.38;55.51
62600;BME280;48671;48.922;2.346;2023-05-22T00:28:39;101416.19;;;17.34;56.10
62600;BME280;48671;48.922;2.346;2023-05-22T00:31:08;101413.81;;;17.29;56.02
62600;BME280;48671;48.922;2.346;2023-05-22T00:33:33;101417.31;;;17.30;56.08
62600;BME280;48671;48.922;2.346;2023-05-22T00:36:05;101413.06;;;17.27;56.00
62600;BME280;48671;48.922;2.346;2023-05-22T00:38:48;101430.28;;;17.33;55.95
62600;BME280;48671;48.922;2.346;2023-05-22T00:41:19;101410.00;;;17.19;56.42
62600;BME280;48671;48.922;2.346;2023-05-22T00:44:11;101435.47;;;17.35;56.13
62600;BME280;48671;48.922;2.346;2023-05-22T00:46:50;101419.78;;;17.33;55.79
62600;BME280;48671;48.922;2.346;2023-05-22T00:49:30;101430.47;;;17.30;56.43
62600;BME280;48671;48.922;2.346;2023-05-22T00:52:29;101416.09;;;17.20;55.81
62600;BME280;48671;48.922;2.346;2023-05-22T00:55:13;101413.31;;;17.23;55.87
62600;BME280;48671;48.922;2.346;2023-05-22T00:57:42;101413.06;;;17.27;56.15
62600;BME280;48671;48.922;2.346;2023-05-22T01:00:12;101407.72;;;17.29;56.11
62600;BME280;48671;48.922;2.346;2023-05-22T01:02:40;101434.50;;;17.51;56.22
62600;BME280;48671;48.922;2.346;2023-05-22T01:05:23;101431.53;;;17.58;55.61
62600;BME280;48671;48.922;2.346;2023-05-22T01:10:32;101402.09;;;17.35;55.68
62600;BME280;48671;48.922;2.346;2023-05-22T01:20:11;101395.91;;;17.36;55.35
62600;BME280;48671;48.922;2.346;2023-05-22T01:31:16;101418.50;;;17.40;55.54
62600;BME280;48671;48.922;2.346;2023-05-22T01:33:45;101401.53;;;17.30;55.59
62600;BME280;48671;48.922;2.346;2023-05-22T01:36:14;101405.50;;;17.37;55.97
62600;BME280;48671;48.922;2.346;2023-05-22T01:38:49;101408.81;;;17.41;55.68
62600;BME280;48671;48.922;2.346;2023-05-22T01:41:31;101414.06;;;17.41;55.80
62600;BME280;48671;48.922;2.346;2023-05-22T01:44:17;101407.63;;;17.30;55.58
62600;BME280;48671;48.922;2.346;2023-05-22T01:50:10;101411.34;;;17.26;55.46
62600;BME280;48671;48.922;2.346;2023-05-22T01:53:09;101411.88;;;17.17;55.92
62600;BME280;48671;48.922;2.346;2023-05-22T01:55:44;101396.00;;;17.03;56.12
62600;BME280;48671;48.922;2.346;2023-05-22T01:58:41;101409.59;;;17.11;56.35
62600;BME280;48671;48.922;2.346;2023-05-22T02:01:22;101400.50;;;17.01;55.70
62600;BME280;48671;48.922;2.346;2023-05-22T02:03:55;101415.09;;;17.06;55.92
62600;BME280;48671;48.922;2.346;2023-05-22T02:06:53;101419.66;;;17.03;56.23
62600;BME280;48671;48.922;2.346;2023-05-22T02:15:35;101399.13;;;16.94;56.15
62600;BME280;48671;48.922;2.346;2023-05-22T02:18:28;101395.13;;;16.87;56.04
62600;BME280;48671;48.922;2.346;2023-05-22T02:21:25;101388.63;;;16.78;56.14
62600;BME280;48671;48.922;2.346;2023-05-22T02:23:59;101412.00;;;16.82;56.34
62600;BME280;48671;48.922;2.346;2023-05-22T02:26:30;101391.59;;;16.70;56.58
62600;BME280;48671;48.922;2.346;2023-05-22T02:29:04;101402.97;;;16.71;56.66
62600;BME280;48671;48.922;2.346;2023-05-22T02:31:29;101393.50;;;16.68;56.52
62600;BME280;48671;48.922;2.346;2023-05-22T02:34:07;101396.69;;;16.73;56.46
62600;BME280;48671;48.922;2.346;2023-05-22T02:36:35;101409.66;;;16.78;56.45
62600;BME280;48671;48.922;2.346;2023-05-22T02:39:06;101395.94;;;16.71;56.55
62600;BME280;48671;48.922;2.346;2023-05-22T02:41:37;101401.13;;;16.73;56.80
62600;BME280;48671;48.922;2.346;2023-05-22T02:44:11;101397.19;;;16.64;56.54
62600;BME280;48671;48.922;2.346;2023-05-22T02:46:41;101388.56;;;16.62;57.14
62600;BME280;48671;48.922;2.346;2023-05-22T02:49:10;101397.03;;;16.67;56.77
62600;BME280;48671;48.922;2.346;2023-05-22T02:51:52;101385.84;;;16.63;56.55
62600;BME280;48671;48.922;2.346;2023-05-22T02:54:42;101380.56;;;16.63;56.64
62600;BME280;48671;48.922;2.346;2023-05-22T02:57:18;101388.47;;;16.63;56.71
62600;BME280;48671;48.922;2.346;2023-05-22T03:06:46;101380.47;;;16.49;57.07
62600;BME280;48671;48.922;2.346;2023-05-22T03:09:23;101398.13;;;16.63;56.62
62600;BME280;48671;48.922;2.346;2023-05-22T03:11:57;101408.63;;;16.63;56.51
62600;BME280;48671;48.922;2.346;2023-05-22T03:14:39;101402.84;;;16.56;57.06
62600;BME280;48671;48.922;2.346;2023-05-22T03:17:10;101410.31;;;16.64;56.98
62600;BME280;48671;48.922;2.346;2023-05-22T03:19:48;101408.22;;;16.55;57.11
62600;BME280;48671;48.922;2.346;2023-05-22T03:22:24;101417.69;;;16.57;56.77
62600;BME280;48671;48.922;2.346;2023-05-22T03:25:02;101402.34;;;16.50;56.77
62600;BME280;48671;48.922;2.346;2023-05-22T03:27:44;101398.00;;;16.49;56.62
62600;BME280;48671;48.922;2.346;2023-05-22T03:30:31;101411.59;;;16.57;57.14
62600;BME280;48671;48.922;2.346;2023-05-22T03:33:08;101385.44;;;16.38;57.24
62600;BME280;48671;48.922;2.346;2023-05-22T03:35:57;101390.63;;;16.39;57.43
62600;BME280;48671;48.922;2.346;2023-05-22T03:38:22;101399.09;;;16.45;57.26
62600;BME280;48671;48.922;2.346;2023-05-22T03:40:48;101406.81;;;16.48;57.25
62600;BME280;48671;48.922;2.346;2023-05-22T03:43:46;101401.44;;;16.33;57.51
62600;BME280;48671;48.922;2.346;2023-05-22T03:46:17;101392.03;;;16.29;57.47
62600;BME280;48671;48.922;2.346;2023-05-22T03:52:21;101376.63;;;16.06;57.20
62600;BME280;48671;48.922;2.346;2023-05-22T03:55:09;101392.22;;;16.09;57.93
62600;BME280;48671;48.922;2.346;2023-05-22T03:58:03;101389.09;;;16.01;58.68
62600;BME280;48671;48.922;2.346;2023-05-22T04:00:28;101399.34;;;16.05;58.58
62600;BME280;48671;48.922;2.346;2023-05-22T04:02:56;101400.31;;;16.04;58.21
62600;BME280;48671;48.922;2.346;2023-05-22T04:05:22;101408.72;;;16.11;58.51
62600;BME280;48671;48.922;2.346;2023-05-22T04:07:48;101415.41;;;16.34;59.50
62600;BME280;48671;48.922;2.346;2023-05-22T04:10:14;101423.44;;;16.48;57.80
62600;BME280;48671;48.922;2.346;2023-05-22T04:12:39;101405.75;;;16.34;57.51
62600;BME280;48671;48.922;2.346;2023-05-22T04:15:05;101420.59;;;16.35;57.80
62600;BME280;48671;48.922;2.346;2023-05-22T04:17:31;101415.56;;;16.31;58.19
62600;BME280;48671;48.922;2.346;2023-05-22T04:19:58;101416.13;;;16.20;57.57
62600;BME280;48671;48.922;2.346;2023-05-22T04:22:25;101413.03;;;16.12;58.19
62600;BME280;48671;48.922;2.346;2023-05-22T04:24:51;101408.03;;;16.07;58.29
62600;BME280;48671;48.922;2.346;2023-05-22T04:27:17;101429.09;;;16.23;58.34
62600;BME280;48671;48.922;2.346;2023-05-22T04:29:46;101430.03;;;16.22;57.75
62600;BME280;48671;48.922;2.346;2023-05-22T04:32:12;101419.84;;;16.16;58.34
62600;BME280;48671;48.922;2.346;2023-05-22T04:34:42;101413.81;;;16.14;58.23
62600;BME280;48671;48.922;2.346;2023-05-22T04:37:08;101413.81;;;16.14;58.52
62600;BME280;48671;48.922;2.346;2023-05-22T04:39:34;101429.16;;;16.22;58.16
62600;BME280;48671;48.922;2.346;2023-05-22T04:42:00;101432.56;;;16.24;58.07
62600;BME280;48671;48.922;2.346;2023-05-22T04:44:33;101433.03;;;16.14;58.45
62600;BME280;48671;48.922;2.346;2023-05-22T04:47:02;101440.50;;;16.05;58.43
62600;BME280;48671;48.922;2.346;2023-05-22T04:49:28;101426.00;;;15.98;58.25
62600;BME280;48671;48.922;2.346;2023-05-22T04:51:54;101429.56;;;15.97;58.62
62600;BME280;48671;48.922;2.346;2023-05-22T04:54:22;101435.13;;;15.90;58.59
62600;BME280;48671;48.922;2.346;2023-05-22T04:56:48;101441.84;;;15.96;58.49
62600;BME280;48671;48.922;2.346;2023-05-22T04:59:14;101446.31;;;15.94;58.49
62600;BME280;48671;48.922;2.346;2023-05-22T05:01:40;101435.97;;;15.91;58.59
62600;BME280;48671;48.922;2.346;2023-05-22T05:04:10;101430.94;;;15.86;58.31
62600;BME280;48671;48.922;2.346;2023-05-22T05:06:35;101447.25;;;15.93;58.79
62600;BME280;48671;48.922;2.346;2023-05-22T05:09:02;101441.16;;;15.93;58.78
62600;BME280;48671;48.922;2.346;2023-05-22T05:11:28;101446.69;;;16.04;58.77
62600;BME280;48671;48.922;2.346;2023-05-22T05:13:54;101459.53;;;16.10;58.90
62600;BME280;48671;48.922;2.346;2023-05-22T05:16:22;101444.06;;;16.04;59.01
62600;BME280;48671;48.922;2.346;2023-05-22T05:18:50;101437.28;;;16.00;58.57
62600;BME280;48671;48.922;2.346;2023-05-22T05:21:16;101442.25;;;16.06;58.62
62600;BME280;48671;48.922;2.346;2023-05-22T05:23:41;101448.53;;;16.02;58.91
62600;BME280;48671;48.922;2.346;2023-05-22T05:26:14;101427.16;;;15.92;58.55
62600;BME280;48671;48.922;2.346;2023-05-22T05:28:40;101446.69;;;16.04;59.19
62600;BME280;48671;48.922;2.346;2023-05-22T05:31:05;101442.25;;;16.06;58.95
62600;BME280;48671;48.922;2.346;2023-05-22T05:33:31;101422.44;;;15.99;58.80
62600;BME280;48671;48.922;2.346;2023-05-22T05:35:57;101437.19;;;16.01;58.86
62600;BME280;48671;48.922;2.346;2023-05-22T05:38:22;101442.53;;;16.17;59.34
62600;BME280;48671;48.922;2.346;2023-05-22T05:40:48;101423.31;;;16.17;58.89
62600;BME280;48671;48.922;2.346;2023-05-22T05:43:13;101428.00;;;16.27;58.64
62600;BME280;48671;48.922;2.346;2023-05-22T05:45:40;101427.00;;;16.30;58.62
62600;BME280;48671;48.922;2.346;2023-05-22T05:48:06;101431.47;;;16.28;58.46
62600;BME280;48671;48.922;2.346;2023-05-22T05:50:32;101421.28;;;16.22;58.41
62600;BME280;48671;48.922;2.346;2023-05-22T05:52:57;101428.16;;;16.24;58.97
62600;BME280;48671;48.922;2.346;2023-05-22T05:55:22;101436.41;;;16.34;58.18
62600;BME280;48671;48.922;2.346;2023-05-22T05:57:48;101433.78;;;16.34;58.63
62600;BME280;48671;48.922;2.346;2023-05-22T06:00:13;101433.22;;;16.45;58.67
62600;BME280;48671;48.922;2.346;2023-05-22T06:02:39;101434.59;;;16.69;58.42
62600;BME280;48671;48.922;2.346;2023-05-22T06:05:05;101425.94;;;16.67;58.33
62600;BME280;48671;48.922;2.346;2023-05-22T06:07:31;101436.13;;;16.73;57.92
62600;BME280;48671;48.922;2.346;2023-05-22T06:09:59;101411.34;;;16.61;57.74
62600;BME280;48671;48.922;2.346;2023-05-22T06:12:24;101427.31;;;16.74;57.87
62600;BME280;48671;48.922;2.346;2023-05-22T06:14:50;101432.19;;;16.82;57.78
62600;BME280;48671;48.922;2.346;2023-05-22T06:17:15;101407.19;;;16.75;57.72
62600;BME280;48671;48.922;2.346;2023-05-22T06:19:41;101429.09;;;16.91;57.80
62600;BME280;48671;48.922;2.346;2023-05-22T06:22:06;101432.56;;;16.92;57.60
62600;BME280;48671;48.922;2.346;2023-05-22T06:24:32;101423.31;;;16.84;57.86
62600;BME280;48671;48.922;2.346;2023-05-22T06:26:58;101444.44;;;16.99;57.58
62600;BME280;48671;48.922;2.346;2023-05-22T06:29:24;101441.31;;;17.08;57.42
62600;BME280;48671;48.922;2.346;2023-05-22T06:31:49;101431.97;;;17.02;57.41
62600;BME280;48671;48.922;2.346;2023-05-22T06:34:14;101433.00;;;17.16;57.65
62600;BME280;48671;48.922;2.346;2023-05-22T06:36:40;101454.13;;;17.30;57.19
62600;BME280;48671;48.922;2.346;2023-05-22T06:39:06;101449.03;;;17.27;56.98
62600;BME280;48671;48.922;2.346;2023-05-22T06:41:32;101445.97;;;17.35;56.70
62600;BME280;48671;48.922;2.346;2023-05-22T06:44:00;101454.47;;;17.40;56.95
62600;BME280;48671;48.922;2.346;2023-05-22T06:46:45;101461.00;;;17.48;56.99
62600;BME280;48671;48.922;2.346;2023-05-22T06:49:11;101463.44;;;17.51;57.12
62600;BME280;48671;48.922;2.346;2023-05-22T06:51:36;101462.09;;;17.60;56.54
62600;BME280;48671;48.922;2.346;2023-05-22T06:54:04;101460.22;;;17.62;56.17
62600;BME280;48671;48.922;2.346;2023-05-22T06:56:35;101447.50;;;17.54;56.36
62600;BME280;48671;48.922;2.346;2023-05-22T06:59:00;101455.22;;;17.58;56.60
62600;BME280;48671;48.922;2.346;2023-05-22T07:01:45;101467.69;;;17.70;56.10
62600;BME280;48671;48.922;2.346;2023-05-22T07:04:10;101464.03;;;17.72;56.47
62600;BME280;48671;48.922;2.346;2023-05-22T07:06:37;101451.22;;;17.66;56.18
62600;BME280;48671;48.922;2.346;2023-05-22T07:09:06;101452.50;;;17.59;56.43
62600;BME280;48671;48.922;2.346;2023-05-22T07:11:32;101456.50;;;17.66;56.31
62600;BME280;48671;48.922;2.346;2023-05-22T07:13:57;101451.56;;;17.60;56.19
62600;BME280;48671;48.922;2.346;2023-05-22T07:16:24;101469.03;;;17.61;56.96
62600;BME280;48671;48.922;2.346;2023-05-22T07:18:52;101483.56;;;17.68;56.55
62600;BME280;48671;48.922;2.346;2023-05-22T07:21:20;101472.69;;;17.74;56.55
62600;BME280;48671;48.922;2.346;2023-05-22T07:23:55;101468.06;;;17.80;56.18
62600;BME280;48671;48.922;2.346;2023-05-22T07:26:20;101480.88;;;17.86;56.84
62600;BME280;48671;48.922;2.346;2023-05-22T07:28:47;101474.22;;;17.94;56.29
62600;BME280;48671;48.922;2.346;2023-05-22T07:31:12;101483.81;;;17.95;55.96
62600;BME280;48671;48.922;2.346;2023-05-22T07:33:37;101476.84;;;17.94;55.97
62600;BME280;48671;48.922;2.346;2023-05-22T07:36:03;101487.69;;;18.04;55.72
62600;BME280;48671;48.922;2.346;2023-05-22T07:38:28;101486.50;;;18.10;55.98
62600;BME280;48671;48.922;2.346;2023-05-22T07:40:54;101483.03;;;18.09;55.91
62600;BME280;48671;48.922;2.346;2023-05-22T07:43:19;101489.00;;;18.27;55.71
62600;BME280;48671;48.922;2.346;2023-05-22T07:45:45;101493.25;;;18.44;55.34
62600;BME280;48671;48.922;2.346;2023-05-22T07:48:10;101483.50;;;18.60;55.20
62600;BME280;48671;48.922;2.346;2023-05-22T07:50:36;101483.72;;;18.71;54.54
62600;BME280;48671;48.922;2.346;2023-05-22T07:53:01;101503.16;;;18.85;54.01
62600;BME280;48671;48.922;2.346;2023-05-22T07:55:28;101487.50;;;18.82;54.32
62600;BME280;48671;48.922;2.346;2023-05-22T07:57:54;101497.22;;;18.95;54.04
62600;BME280;48671;48.922;2.346;2023-05-22T08:00:20;101501.34;;;19.00;54.25
62600;BME280;48671;48.922;2.346;2023-05-22T08:02:46;101485.53;;;19.00;54.12
62600;BME280;48671;48.922;2.346;2023-05-22T08:05:11;101482.97;;;19.12;54.08
62600;BME280;48671;48.922;2.346;2023-05-22T08:07:36;101489.75;;;19.31;54.61
62600;BME280;48671;48.922;2.346;2023-05-22T08:10:06;101479.91;;;19.47;53.56
62600;BME280;48671;48.922;2.346;2023-05-22T08:12:32;101486.69;;;19.66;53.31
62600;BME280;48671;48.922;2.346;2023-05-22T08:14:57;101487.38;;;19.82;53.01
62600;BME280;48671;48.922;2.346;2023-05-22T08:17:22;101492.84;;;20.06;52.54
62600;BME280;48671;48.922;2.346;2023-05-22T08:19:48;101489.03;;;20.10;52.96
62600;BME280;48671;48.922;2.346;2023-05-22T08:22:14;101490.13;;;20.20;52.55
62600;BME280;48671;48.922;2.346;2023-05-22T08:24:40;101496.38;;;20.32;52.87
62600;BME280;48671;48.922;2.346;2023-05-22T08:27:05;101482.97;;;20.48;51.64
62600;BME280;48671;48.922;2.346;2023-05-22T08:29:30;101510.59;;;20.56;50.91
62600;BME280;48671;48.922;2.346;2023-05-22T08:31:56;101484.66;;;20.49;51.60
62600;BME280;48671;48.922;2.346;2023-05-22T08:34:22;101492.16;;;20.42;50.89
62600;BME280;48671;48.922;2.346;2023-05-22T08:36:48;101494.91;;;20.28;50.82
62600;BME280;48671;48.922;2.346;2023-05-22T08:39:14;101506.63;;;20.37;51.14
62600;BME280;48671;48.922;2.346;2023-05-22T08:41:39;101507.25;;;20.54;51.69
62600;BME280;48671;48.922;2.346;2023-05-22T08:44:07;101499.63;;;20.75;51.38
62600;BME280;48671;48.922;2.346;2023-05-22T08:46:33;101499.19;;;20.81;50.94
62600;BME280;48671;48.922;2.346;2023-05-22T08:49:03;101510.41;;;20.85;50.58
62600;BME280;48671;48.922;2.346;2023-05-22T08:51:32;101510.81;;;20.79;50.97
62600;BME280;48671;48.922;2.346;2023-05-22T08:53:59;101510.63;;;20.95;51.20
62600;BME280;48671;48.922;2.346;2023-05-22T08:56:25;101499.94;;;20.96;50.52
62600;BME280;48671;48.922;2.346;2023-05-22T08:58:50;101506.69;;;21.13;50.34
62600;BME280;48671;48.922;2.346;2023-05-22T09:01:16;101509.53;;;21.23;49.86
62600;BME280;48671;48.922;2.346;2023-05-22T09:03:42;101512.06;;;21.37;50.19
62600;BME280;48671;48.922;2.346;2023-05-22T09:06:07;101506.84;;;21.48;49.79
62600;BME280;48671;48.922;2.346;2023-05-22T09:08:36;101501.78;;;21.33;49.25
62600;BME280;48671;48.922;2.346;2023-05-22T09:11:01;101505.38;;;21.32;49.69
62600;BME280;48671;48.922;2.346;2023-05-22T09:13:29;101514.28;;;21.43;49.51
62600;BME280;48671;48.922;2.346;2023-05-22T09:16:13;101517.53;;;21.47;49.70
62600;BME280;48671;48.922;2.346;2023-05-22T09:18:40;101504.63;;;21.55;49.67
62600;BME280;48671;48.922;2.346;2023-05-22T09:21:08;101513.31;;;21.44;49.82
62600;BME280;48671;48.922;2.346;2023-05-22T09:23:33;101517.72;;;21.57;50.28
62600;BME280;48671;48.922;2.346;2023-05-22T09:26:00;101512.84;;;21.63;49.46
62600;BME280;48671;48.922;2.346;2023-05-22T09:28:34;101520.69;;;21.65;49.57
62600;BME280;48671;48.922;2.346;2023-05-22T09:31:00;101513.63;;;21.53;49.74
62600;BME280;48671;48.922;2.346;2023-05-22T09:33:27;101518.88;;;21.65;49.97
62600;BME280;48671;48.922;2.346;2023-05-22T09:35:53;101510.19;;;21.63;49.76
62600;BME280;48671;48.922;2.346;2023-05-22T09:38:26;101523.59;;;21.73;49.90
62600;BME280;48671;48.922;2.346;2023-05-22T09:40:52;101525.81;;;21.79;49.55
62600;BME280;48671;48.922;2.346;2023-05-22T09:43:20;101522.03;;;21.94;49.47
62600;BME280;48671;48.922;2.346;2023-05-22T09:45:45;101506.41;;;22.03;48.80
62600;BME280;48671;48.922;2.346;2023-05-22T09:48:15;101514.66;;;22.11;49.49
62600;BME280;48671;48.922;2.346;2023-05-22T09:50:45;101509.00;;;22.15;49.22
62600;BME280;48671;48.922;2.346;2023-05-22T09:53:12;101515.31;;;22.26;48.63
62600;BME280;48671;48.922;2.346;2023-05-22T09:55:40;101515.84;;;22.42;48.83
62600;BME280;48671;48.922;2.346;2023-05-22T09:58:05;101511.50;;;22.41;48.70
62600;BME280;48671;48.922;2.346;2023-05-22T10:00:34;101513.72;;;22.58;48.56
62600;BME280;48671;48.922;2.346;2023-05-22T10:03:10;101510.22;;;22.69;48.42
62600;BME280;48671;48.922;2.346;2023-05-22T10:05:43;101497.59;;;22.73;47.67
62600;BME280;48671;48.922;2.346;2023-05-22T10:08:13;101508.31;;;22.82;48.44
62600;BME280;48671;48.922;2.346;2023-05-22T10:10:41;101492.44;;;22.94;47.52
62600;BME280;48671;48.922;2.346;2023-05-22T10:13:07;101511.84;;;23.17;47.79
62600;BME280;48671;48.922;2.346;2023-05-22T10:15:36;101501.00;;;23.20;47.99
62600;BME280;48671;48.922;2.346;2023-05-22T10:18:02;101501.69;;;23.33;46.95
62600;BME280;48671;48.922;2.346;2023-05-22T10:20:29;101490.09;;;23.34;47.83
62600;BME280;48671;48.922;2.346;2023-05-22T10:22:55;101501.81;;;23.43;47.45
62600;BME280;48671;48.922;2.346;2023-05-22T10:25:21;101489.75;;;23.39;47.19
62600;BME280;48671;48.922;2.346;2023-05-22T10:27:47;101504.56;;;23.52;46.88
62600;BME280;48671;48.922;2.346;2023-05-22T10:36:15;101501.75;;;24.09;46.48
62600;BME280;48671;48.922;2.346;2023-05-22T10:39:10;101498.69;;;24.13;46.20
62600;BME280;48671;48.922;2.346;2023-05-22T10:41:38;101497.34;;;24.19;46.55
62600;BME280;48671;48.922;2.346;2023-05-22T10:44:04;101498.72;;;24.34;46.04
62600;BME280;48671;48.922;2.346;2023-05-22T10:46:33;101497.97;;;24.43;45.48
62600;BME280;48671;48.922;2.346;2023-05-22T10:48:59;101498.88;;;24.53;45.76
62600;BME280;48671;48.922;2.346;2023-05-22T10:51:24;101497.78;;;24.56;45.04
62600;BME280;48671;48.922;2.346;2023-05-22T10:53:59;101475.56;;;24.46;44.49
62600;BME280;48671;48.922;2.346;2023-05-22T10:56:33;101479.59;;;24.40;44.91
62600;BME280;48671;48.922;2.346;2023-05-22T10:59:00;101483.44;;;24.47;45.35
62600;BME280;48671;48.922;2.346;2023-05-22T11:01:30;101474.19;;;24.51;44.36
62600;BME280;48671;48.922;2.346;2023-05-22T11:09:27;101468.00;;;24.72;44.71
62600;BME280;48671;48.922;2.346;2023-05-22T11:12:13;101461.69;;;25.04;45.31
62600;BME280;48671;48.922;2.346;2023-05-22T11:17:16;101459.84;;;25.35;43.62
62600;BME280;48671;48.922;2.346;2023-05-22T11:19:42;101461.41;;;25.47;43.79
62600;BME280;48671;48.922;2.346;2023-05-22T11:22:08;101467.63;;;25.67;43.92
62600;BME280;48671;48.922;2.346;2023-05-22T11:24:33;101468.00;;;25.72;43.53
62600;BME280;48671;48.922;2.346;2023-05-22T11:27:08;101465.78;;;25.67;43.70
62600;BME280;48671;48.922;2.346;2023-05-22T11:29:34;101463.69;;;25.71;43.65
62600;BME280;48671;48.922;2.346;2023-05-22T11:32:00;101469.69;;;25.73;43.53
62600;BME280;48671;48.922;2.346;2023-05-22T11:34:26;101468.84;;;25.53;42.87
62600;BME280;48671;48.922;2.346;2023-05-22T11:36:56;101466.00;;;25.26;43.71
62600;BME280;48671;48.922;2.346;2023-05-22T11:39:22;101454.22;;;25.18;44.13
62600;BME280;48671;48.922;2.346;2023-05-22T11:41:47;101461.94;;;25.21;43.79
62600;BME280;48671;48.922;2.346;2023-05-22T11:44:13;101460.66;;;25.16;44.40
62600;BME280;48671;48.922;2.346;2023-05-22T11:46:38;101461.13;;;25.00;44.28
62600;BME280;48671;48.922;2.346;2023-05-22T11:49:04;101472.03;;;24.97;44.20
62600;BME280;48671;48.922;2.346;2023-05-22T11:51:30;101469.09;;;25.00;44.46
62600;BME280;48671;48.922;2.346;2023-05-22T11:53:56;101465.75;;;25.08;44.09
62600;BME280;48671;48.922;2.346;2023-05-22T11:56:21;101468.41;;;25.08;43.16
62600;BME280;48671;48.922;2.346;2023-05-22T11:58:50;101470.47;;;24.94;43.71
62600;BME280;48671;48.922;2.346;2023-05-22T12:01:16;101467.97;;;24.93;43.46
62600;BME280;48671;48.922;2.346;2023-05-22T12:03:41;101470.94;;;24.99;43.75
62600;BME280;48671;48.922;2.346;2023-05-22T12:06:07;101473.97;;;24.95;43.57
62600;BME280;48671;48.922;2.346;2023-05-22T12:08:33;101471.31;;;24.95;43.38
62600;BME280;48671;48.922;2.346;2023-05-22T12:10:59;101467.97;;;24.93;43.31
62600;BME280;48671;48.922;2.346;2023-05-22T12:13:28;101462.50;;;24.94;43.47
62600;BME280;48671;48.922;2.346;2023-05-22T12:15:57;101461.84;;;25.02;43.95
62600;BME280;48671;48.922;2.346;2023-05-22T12:18:24;101465.63;;;25.09;43.36
62600;BME280;48671;48.922;2.346;2023-05-22T12:20:55;101466.13;;;24.93;43.23
62600;BME280;48671;48.922;2.346;2023-05-22T12:23:24;101461.56;;;25.05;43.08
62600;BME280;48671;48.922;2.346;2023-05-22T12:28:22;101459.59;;;25.48;42.41
62600;BME280;48671;48.922;2.346;2023-05-22T12:30:51;101464.63;;;25.60;42.09
62600;BME280;48671;48.922;2.346;2023-05-22T12:33:16;101460.84;;;25.63;42.09
62600;BME280;48671;48.922;2.346;2023-05-22T12:35:41;101468.22;;;25.90;41.89
62600;BME280;48671;48.922;2.346;2023-05-22T12:38:07;101468.13;;;26.29;41.20
62600;BME280;48671;48.922;2.346;2023-05-22T12:40:33;101472.63;;;26.38;40.27
62600;BME280;48671;48.922;2.346;2023-05-22T12:42:58;101459.28;;;26.38;40.60
62600;BME280;48671;48.922;2.346;2023-05-22T12:45:23;101465.34;;;26.21;41.30
62600;BME280;48671;48.922;2.346;2023-05-22T12:47:49;101470.56;;;25.93;41.01
62600;BME280;48671;48.922;2.346;2023-05-22T12:50:14;101471.44;;;25.84;42.10
62600;BME280;48671;48.922;2.346;2023-05-22T12:52:39;101468.16;;;26.09;42.35
62600;BME280;48671;48.922;2.346;2023-05-22T12:55:05;101461.66;;;26.41;41.01
62600;BME280;48671;48.922;2.346;2023-05-22T12:57:31;101465.66;;;26.74;40.77
62600;BME280;48671;48.922;2.346;2023-05-22T12:59:56;101467.44;;;26.83;41.22
62600;BME280;48671;48.922;2.346;2023-05-22T13:02:21;101462.88;;;26.66;40.88
62600;BME280;48671;48.922;2.346;2023-05-22T13:04:47;101466.41;;;26.47;41.11
62600;BME280;48671;48.922;2.346;2023-05-22T13:07:12;101465.91;;;26.24;41.95
62600;BME280;48671;48.922;2.346;2023-05-22T13:09:37;101463.81;;;26.08;41.66
62600;BME280;48671;48.922;2.346;2023-05-22T13:12:03;101467.91;;;25.93;41.78
62600;BME280;48671;48.922;2.346;2023-05-22T13:14:28;101467.59;;;25.77;42.41
62600;BME280;48671;48.922;2.346;2023-05-22T13:16:54;101466.75;;;25.66;42.87
62600;BME280;48671;48.922;2.346;2023-05-22T13:19:19;101462.84;;;25.61;42.90
62600;BME280;48671;48.922;2.346;2023-05-22T13:21:44;101453.28;;;25.58;42.88
62600;BME280;48671;48.922;2.346;2023-05-22T13:24:10;101459.19;;;25.62;43.05
62600;BME280;48671;48.922;2.346;2023-05-22T13:26:35;101453.84;;;25.62;42.44
62600;BME280;48671;48.922;2.346;2023-05-22T13:29:00;101458.75;;;25.66;42.05
62600;BME280;48671;48.922;2.346;2023-05-22T13:31:26;101452.88;;;25.73;42.22
62600;BME280;48671;48.922;2.346;2023-05-22T13:33:51;101459.31;;;25.80;42.10
62600;BME280;48671;48.922;2.346;2023-05-22T13:36:17;101458.63;;;25.78;42.93
62600;BME280;48671;48.922;2.346;2023-05-22T13:38:42;101464.09;;;25.76;42.93
62600;BME280;48671;48.922;2.346;2023-05-22T13:41:07;101463.66;;;25.61;43.15
62600;BME280;48671;48.922;2.346;2023-05-22T13:43:32;101452.72;;;25.55;43.08
62600;BME280;48671;48.922;2.346;2023-05-22T13:45:58;101458.75;;;25.57;43.24
62600;BME280;48671;48.922;2.346;2023-05-22T13:48:23;101462.69;;;25.62;43.56
62600;BME280;48671;48.922;2.346;2023-05-22T13:50:48;101465.63;;;25.69;43.36
62600;BME280;48671;48.922;2.346;2023-05-22T13:53:19;101469.00;;;25.61;43.76
62600;BME280;48671;48.922;2.346;2023-05-22T13:55:44;101471.50;;;25.53;43.76